createdAt,value
2023-03-24T00:00:24.201Z,4.92
2023-03-24T00:02:51.981Z,5.01
2023-03-24T00:05:21.816Z,5.01
2023-03-24T00:07:54.650Z,4.94
2023-03-24T00:10:22.855Z,5.12
2023-03-24T00:12:50.709Z,4.99
2023-03-24T00:15:21.555Z,5.05
2023-03-24T00:17:52.849Z,5.18
2023-03-24T00:20:22.361Z,5.04
2023-03-24T00:22:56.997Z,5.20
2023-03-24T00:25:33.915Z,5.07
2023-03-24T00:28:01.492Z,4.98
2023-03-24T00:30:28.236Z,5.14
2023-03-24T00:32:55.393Z,4.90
2023-03-24T00:35:22.463Z,5.00
2023-03-24T00:37:52.187Z,4.97
2023-03-24T00:40:21.034Z,4.88
2023-03-24T00:42:48.979Z,5.12
2023-03-24T00:45:21.130Z,4.89
2023-03-24T00:47:50.105Z,4.89
2023-03-24T00:50:20.690Z,5.12
2023-03-24T00:52:49.284Z,4.89
2023-03-24T00:55:16.895Z,4.90
2023-03-24T00:57:54.213Z,5.11
2023-03-24T01:00:26.707Z,4.95
2023-03-24T01:02:56.787Z,5.06
2023-03-24T01:05:26.052Z,4.91
2023-03-24T01:07:52.805Z,4.80
2023-03-24T01:10:26.224Z,4.98
2023-03-24T01:12:56.339Z,4.72
2023-03-24T01:15:26.579Z,4.79
2023-03-24T01:17:54.386Z,4.81
2023-03-24T01:20:23.304Z,4.66
2023-03-24T01:22:50.761Z,4.83
2023-03-24T01:25:21.352Z,4.79
2023-03-24T01:27:49.396Z,4.71
2023-03-24T01:30:18.363Z,4.85
2023-03-24T01:32:46.340Z,4.54
2023-03-24T01:35:13.064Z,4.68
2023-03-24T01:37:40.354Z,4.65
2023-03-24T01:40:11.917Z,4.57
2023-03-24T01:42:39.992Z,4.82
2023-03-24T01:45:35.618Z,4.66
2023-03-24T01:48:03.878Z,4.66
2023-03-24T01:50:32.360Z,4.69
2023-03-24T01:53:01.298Z,4.52
2023-03-24T01:55:29.743Z,4.70
2023-03-24T01:58:00.438Z,4.55
2023-03-24T02:00:28.608Z,4.48
2023-03-24T02:03:01.103Z,4.56
2023-03-24T02:05:38.213Z,4.39
2023-03-24T02:08:11.606Z,4.38
2023-03-24T02:10:39.281Z,4.58
2023-03-24T02:13:07.647Z,4.48
2023-03-24T02:15:48.524Z,4.60
2023-03-24T02:18:25.801Z,4.51
2023-03-24T02:21:19.283Z,4.57
2023-03-24T02:24:08.798Z,4.68
2023-03-24T02:26:53.470Z,4.55
2023-03-24T02:29:35.257Z,4.74
2023-03-24T02:32:37.200Z,4.55
2023-03-24T02:35:12.810Z,4.53
2023-03-24T02:38:05.165Z,4.57
2023-03-24T02:40:54.381Z,4.42
2023-03-24T02:43:52.841Z,4.59
2023-03-24T02:46:35.960Z,4.39
2023-03-24T02:49:27.749Z,4.59
2023-03-24T02:52:13.117Z,4.44
2023-03-24T02:55:13.233Z,4.62
2023-03-24T02:58:05.565Z,4.52
2023-03-24T03:00:41.260Z,4.54
2023-03-24T03:03:28.055Z,4.66
2023-03-24T03:05:58.790Z,4.42
2023-03-24T03:08:30.535Z,4.56
2023-03-24T03:10:59.364Z,4.47
2023-03-24T03:13:40.853Z,4.41
2023-03-24T03:16:17.851Z,4.57
2023-03-24T03:18:52.150Z,4.38
2023-03-24T03:21:24.684Z,4.47
2023-03-24T03:24:12.736Z,4.45
2023-03-24T03:26:41.752Z,4.34
2023-03-24T03:29:35.322Z,4.45
2023-03-24T03:32:08.218Z,4.27
2023-03-24T03:34:40.134Z,4.40
2023-03-24T03:37:10.024Z,4.35
2023-03-24T03:39:51.944Z,4.30
2023-03-24T03:42:19.458Z,4.40
2023-03-24T03:44:46.829Z,4.26
2023-03-24T03:47:15.137Z,4.46
2023-03-24T03:49:46.242Z,4.34
2023-03-24T03:52:15.545Z,4.29
2023-03-24T03:54:44.200Z,4.37
2023-03-24T03:57:14.765Z,4.16
2023-03-24T03:59:42.888Z,4.34
2023-03-24T04:02:40.367Z,4.24
2023-03-24T04:05:15.967Z,4.33
2023-03-24T04:08:16.284Z,4.31
2023-03-24T04:11:18.430Z,4.24
2023-03-24T04:14:21.938Z,4.26
2023-03-24T04:16:57.506Z,4.24
2023-03-24T04:19:30.227Z,4.42
2023-03-24T04:22:04.705Z,4.23
2023-03-24T04:24:37.444Z,4.31
2023-03-24T04:27:30.117Z,4.25
2023-03-24T04:30:23.416Z,4.24
2023-03-24T04:32:58.492Z,4.24
2023-03-24T04:35:36.615Z,4.20
2023-03-24T04:38:07.254Z,4.34
2023-03-24T04:40:36.789Z,4.13
2023-03-24T04:43:07.420Z,4.28
2023-03-24T04:45:37.463Z,4.30
2023-03-24T04:48:08.856Z,4.24
2023-03-24T04:50:44.229Z,4.42
2023-03-24T04:53:10.957Z,4.22
2023-03-24T04:55:59.277Z,4.31
2023-03-24T04:58:26.024Z,4.27
2023-03-24T05:00:53.323Z,4.26
2023-03-24T05:03:20.101Z,4.42
2023-03-24T05:05:49.049Z,4.33
2023-03-24T05:08:18.022Z,4.52
2023-03-24T05:10:45.004Z,4.58
2023-03-24T05:13:13.855Z,4.56
2023-03-24T05:15:40.622Z,4.78
2023-03-24T05:18:07.688Z,4.60
2023-03-24T05:20:34.393Z,4.74
2023-03-24T05:23:01.958Z,4.85
2023-03-24T05:25:28.571Z,4.78
2023-03-24T05:27:55.539Z,4.94
2023-03-24T05:30:23.721Z,4.92
2023-03-24T05:32:50.813Z,4.94
2023-03-24T05:35:17.679Z,4.97
2023-03-24T05:37:44.364Z,4.84
2023-03-24T05:40:11.557Z,5.03
2023-03-24T05:42:38.182Z,4.94
2023-03-24T05:45:05.856Z,4.80
2023-03-24T05:47:32.523Z,4.98
2023-03-24T05:49:59.162Z,4.79
2023-03-24T05:52:27.397Z,4.82
2023-03-24T05:54:55.504Z,4.89
2023-03-24T05:57:22.255Z,4.86
2023-03-24T05:59:50.048Z,5.00
2023-03-24T06:02:16.705Z,5.06
2023-03-24T06:04:48.939Z,5.07
2023-03-24T06:07:16.586Z,5.19
2023-03-24T06:09:47.055Z,5.05
2023-03-24T06:12:14.653Z,5.28
2023-03-24T06:14:41.253Z,5.16
2023-03-24T06:17:08.260Z,5.10
2023-03-24T06:19:38.539Z,5.34
2023-03-24T06:22:07.584Z,5.13
2023-03-24T06:24:34.553Z,5.24
2023-03-24T06:27:02.505Z,5.29
2023-03-24T06:29:31.157Z,5.17
2023-03-24T06:31:58.066Z,5.36
2023-03-24T06:34:29.385Z,5.17
2023-03-24T06:36:58.020Z,5.28
2023-03-24T06:39:25.135Z,5.42
2023-03-24T06:41:52.145Z,5.25
2023-03-24T06:44:20.132Z,5.47
2023-03-24T06:46:47.303Z,5.40
2023-03-24T06:49:14.020Z,5.37
2023-03-24T06:51:40.801Z,5.55
2023-03-24T06:54:07.435Z,5.33
2023-03-24T06:56:34.889Z,5.45
2023-03-24T06:59:01.633Z,5.53
2023-03-24T07:01:28.394Z,5.45
2023-03-24T07:03:55.343Z,5.64
2023-03-24T07:06:22.966Z,5.55
2023-03-24T07:08:50.257Z,5.60
2023-03-24T07:11:18.201Z,5.67
2023-03-24T07:13:44.904Z,5.52
2023-03-24T07:16:11.578Z,5.70
2023-03-24T07:18:38.249Z,5.66
2023-03-24T07:21:05.272Z,5.62
2023-03-24T07:23:33.110Z,5.80
2023-03-24T07:26:02.051Z,5.56
2023-03-24T07:28:30.023Z,5.72
2023-03-24T07:30:56.900Z,5.70
2023-03-24T07:33:26.136Z,5.59
2023-03-24T07:35:57.404Z,5.75
2023-03-24T07:38:25.616Z,5.59
2023-03-24T07:40:52.955Z,5.81
2023-03-24T07:43:19.613Z,5.74
2023-03-24T07:45:46.576Z,5.72
2023-03-24T07:48:13.585Z,5.99
2023-03-24T07:50:41.696Z,5.84
2023-03-24T07:53:11.397Z,5.99
2023-03-24T07:55:41.492Z,6.06
2023-03-24T07:58:09.235Z,6.01
2023-03-24T08:00:37.572Z,6.17
2023-03-24T08:03:04.567Z,5.97
2023-03-24T08:05:31.330Z,5.98
2023-03-24T08:07:58.627Z,5.95
2023-03-24T08:10:29.245Z,5.91
2023-03-24T08:12:57.397Z,6.09
2023-03-24T08:15:26.587Z,5.88
2023-03-24T08:17:54.816Z,5.97
2023-03-24T08:20:21.517Z,6.05
2023-03-24T08:22:55.568Z,5.99
2023-03-24T08:25:25.230Z,6.24
2023-03-24T08:27:52.996Z,6.13
2023-03-24T08:30:22.354Z,6.25
2023-03-24T08:33:08.979Z,6.30
2023-03-24T08:35:39.901Z,6.30
2023-03-24T08:38:10.392Z,6.49
2023-03-24T08:40:40.055Z,6.37
2023-03-24T08:43:11.145Z,6.56
2023-03-24T08:45:38.265Z,6.48
2023-03-24T08:48:07.548Z,6.58
2023-03-24T08:50:38.439Z,6.62
2023-03-24T08:53:05.766Z,6.51
2023-03-24T08:55:34.273Z,6.69
2023-03-24T08:58:01.686Z,6.59
2023-03-24T09:00:29.167Z,6.71
2023-03-24T09:02:56.731Z,6.71
2023-03-24T09:05:36.619Z,6.67
2023-03-24T09:08:11.660Z,6.81
2023-03-24T09:10:39.660Z,6.61
2023-03-24T09:13:06.379Z,6.73
2023-03-24T09:15:33.876Z,6.84
2023-03-24T09:18:00.981Z,6.72
2023-03-24T09:20:28.894Z,6.80
2023-03-24T09:22:57.650Z,6.70
2023-03-24T09:25:25.417Z,6.53
2023-03-24T09:27:53.900Z,6.70
2023-03-24T09:30:20.781Z,6.64
2023-03-24T09:32:48.791Z,6.54
2023-03-24T09:35:17.265Z,6.66
2023-03-24T09:37:44.129Z,6.49
2023-03-24T09:40:20.631Z,6.67
2023-03-24T09:42:54.505Z,6.65
2023-03-24T09:45:23.991Z,6.68
2023-03-24T09:47:58.647Z,6.80
2023-03-24T09:50:30.546Z,6.63
2023-03-24T09:53:04.776Z,6.84
2023-03-24T09:55:31.421Z,6.75
2023-03-24T09:58:04.945Z,6.80
2023-03-24T10:00:34.551Z,6.81
2023-03-24T10:03:14.869Z,6.69
2023-03-24T10:05:53.621Z,6.89
2023-03-24T10:08:42.248Z,6.63
2023-03-24T10:11:29.093Z,6.82
2023-03-24T10:14:04.450Z,6.67
2023-03-24T10:16:55.736Z,6.85
2023-03-24T10:19:55.522Z,6.77
2023-03-24T10:22:35.577Z,6.81
2023-03-24T10:25:16.331Z,6.84
2023-03-24T10:28:01.239Z,6.73
2023-03-24T10:30:34.425Z,6.81
2023-03-24T10:33:01.197Z,6.61
2023-03-24T10:35:38.471Z,6.82
2023-03-24T10:38:23.596Z,6.71
2023-03-24T10:40:50.891Z,6.78
2023-03-24T10:43:20.013Z,6.77
2023-03-24T10:45:55.421Z,6.65
2023-03-24T10:49:12.766Z,6.84
2023-03-24T10:51:46.645Z,6.65
2023-03-24T10:54:22.828Z,6.69
2023-03-24T10:57:02.016Z,6.76
2023-03-24T10:59:33.197Z,6.62
2023-03-24T11:02:01.336Z,6.80
2023-03-24T11:04:30.876Z,6.62
2023-03-24T11:07:22.754Z,6.70
2023-03-24T11:10:07.477Z,6.57
2023-03-24T11:12:40.697Z,6.63
2023-03-24T11:15:22.447Z,6.70
2023-03-24T11:17:58.112Z,6.67
2023-03-24T11:20:41.937Z,6.81
2023-03-24T11:23:12.011Z,6.64
2023-03-24T11:25:41.579Z,6.86
2023-03-24T11:28:15.875Z,6.89
2023-03-24T11:30:49.799Z,6.94
2023-03-24T11:33:19.365Z,7.08
2023-03-24T11:35:50.361Z,7.00
2023-03-24T11:38:31.525Z,7.08
2023-03-24T11:41:05.009Z,7.09
2023-03-24T11:43:32.646Z,7.02
2023-03-24T11:46:01.534Z,7.20
2023-03-24T11:49:03.812Z,6.96
2023-03-24T11:51:36.438Z,6.84
2023-03-24T11:54:13.348Z,6.97
2023-03-24T11:56:46.254Z,6.75
2023-03-24T11:59:34.361Z,6.69
2023-03-24T12:02:12.845Z,6.70
2023-03-24T12:05:22.826Z,6.77
2023-03-24T12:08:27.933Z,6.75
2023-03-24T12:10:54.541Z,6.75
2023-03-24T12:13:36.734Z,6.68
2023-03-24T12:16:06.421Z,6.85
2023-03-24T12:18:41.737Z,6.73
2023-03-24T12:21:38.826Z,6.74
2023-03-24T12:24:44.275Z,7.05
2023-03-24T12:27:39.457Z,7.03
2023-03-24T12:30:25.805Z,7.28
2023-03-24T12:32:58.345Z,7.12
2023-03-24T12:35:43.209Z,7.14
2023-03-24T12:38:24.789Z,6.93
2023-03-24T12:41:14.041Z,6.97
2023-03-24T12:43:52.661Z,6.88
2023-03-24T12:46:47.906Z,6.83
2023-03-24T12:49:18.530Z,6.94
2023-03-24T12:52:16.898Z,6.75
2023-03-24T12:55:04.882Z,6.58
2023-03-24T12:57:42.249Z,6.54
2023-03-24T13:00:20.316Z,6.53
2023-03-24T13:02:58.457Z,6.69
2023-03-24T13:05:41.562Z,6.66
2023-03-24T13:08:29.766Z,6.61
2023-03-24T13:11:02.532Z,6.55
2023-03-24T13:13:34.963Z,6.52
2023-03-24T13:16:06.272Z,6.54
2023-03-24T13:18:51.207Z,6.74
2023-03-24T13:21:19.041Z,6.53
2023-03-24T13:24:14.986Z,6.45
2023-03-24T13:26:52.428Z,6.38
2023-03-24T13:29:21.913Z,6.37
2023-03-24T13:31:57.394Z,6.32
2023-03-24T13:34:32.880Z,6.32
2023-03-24T13:37:20.529Z,6.51
2023-03-24T13:39:47.443Z,6.31
2023-03-24T13:43:01.016Z,6.23
2023-03-24T13:45:34.723Z,6.14
2023-03-24T13:48:15.085Z,6.32
2023-03-24T13:51:12.959Z,6.09
2023-03-24T13:53:52.988Z,5.93
2023-03-24T13:56:27.664Z,5.92
2023-03-24T13:59:03.520Z,6.10
2023-03-24T14:01:40.187Z,6.07
2023-03-24T14:04:19.218Z,5.95
2023-03-24T14:06:54.413Z,5.84
2023-03-24T14:09:31.248Z,5.86
2023-03-24T14:12:03.791Z,5.97
2023-03-24T14:14:35.316Z,5.82
2023-03-24T14:17:04.937Z,5.89
2023-03-24T14:19:33.521Z,5.89
2023-03-24T14:22:21.018Z,5.80
2023-03-24T14:24:59.756Z,5.95
2023-03-24T14:27:42.313Z,5.75
2023-03-24T14:30:21.724Z,5.92
2023-03-24T14:32:56.596Z,5.77
2023-03-24T14:35:39.345Z,5.58
2023-03-24T14:38:28.580Z,5.69
2023-03-24T14:41:07.549Z,5.63
2023-03-24T14:43:41.240Z,5.40
2023-03-24T14:46:21.450Z,5.57
2023-03-24T14:48:56.400Z,5.51
2023-03-24T14:51:40.677Z,5.44
2023-03-24T14:54:30.427Z,5.51
2023-03-24T14:56:59.636Z,5.27
2023-03-24T14:59:49.010Z,5.48
2023-03-24T15:02:31.832Z,5.26
2023-03-24T15:05:21.913Z,5.21
2023-03-24T15:08:12.665Z,5.19
2023-03-24T15:10:51.009Z,5.06
2023-03-24T15:13:36.277Z,5.12
2023-03-24T15:16:15.796Z,5.20
2023-03-24T15:19:02.094Z,5.01
2023-03-24T15:21:36.953Z,5.20
2023-03-24T15:24:24.720Z,5.15
2023-03-24T15:27:08.864Z,4.92
2023-03-24T15:29:39.364Z,4.93
2023-03-24T15:32:06.697Z,4.96
2023-03-24T15:34:41.610Z,4.74
2023-03-24T15:37:55.673Z,4.79
2023-03-24T15:40:30.426Z,4.95
2023-03-24T15:42:59.774Z,4.86
2023-03-24T15:45:29.898Z,4.96
2023-03-24T15:47:58.642Z,4.86
2023-03-24T15:50:33.125Z,4.79
2023-03-24T15:53:08.109Z,4.98
2023-03-24T15:55:36.922Z,4.86
2023-03-24T15:58:29.535Z,4.88
2023-03-24T16:01:01.259Z,4.92
2023-03-24T16:03:30.598Z,4.71
2023-03-24T16:05:57.449Z,4.88
2023-03-24T16:08:41.143Z,4.79
2023-03-24T16:11:13.093Z,4.64
2023-03-24T16:13:42.421Z,4.73
2023-03-24T16:16:16.976Z,4.73
2023-03-24T16:18:46.023Z,4.67
2023-03-24T16:21:27.841Z,4.71
2023-03-24T16:23:56.292Z,4.92
2023-03-24T16:26:24.390Z,4.74
2023-03-24T16:28:52.594Z,4.87
2023-03-24T16:31:34.723Z,4.84
2023-03-24T16:34:01.426Z,4.73
2023-03-24T16:36:29.637Z,4.85
2023-03-24T16:38:59.123Z,4.80
2023-03-24T16:41:25.913Z,4.73
2023-03-24T16:43:55.369Z,4.73
2023-03-24T16:46:34.161Z,4.91
2023-03-24T16:49:02.590Z,4.78
2023-03-24T16:51:29.943Z,4.62
2023-03-24T16:53:56.617Z,4.58
2023-03-24T16:56:25.505Z,4.81
2023-03-24T16:58:53.308Z,4.74
2023-03-24T17:01:33.666Z,4.56
2023-03-24T17:04:11.242Z,4.61
2023-03-24T17:06:49.172Z,4.62
2023-03-24T17:09:16.409Z,4.51
2023-03-24T17:11:52.056Z,4.70
2023-03-24T17:14:19.079Z,4.58
2023-03-24T17:16:48.364Z,4.68
2023-03-24T17:19:17.792Z,4.65
2023-03-24T17:21:49.297Z,4.44
2023-03-24T17:24:16.755Z,4.52
2023-03-24T17:26:43.672Z,4.44
2023-03-24T17:29:14.726Z,4.33
2023-03-24T17:31:43.297Z,4.57
2023-03-24T17:36:45.226Z,4.32
2023-03-24T17:39:17.092Z,4.41
2023-03-24T17:41:43.976Z,4.39
2023-03-24T17:44:10.936Z,4.56
2023-03-24T17:46:37.823Z,4.56
2023-03-24T17:49:06.218Z,4.32
2023-03-24T17:51:33.986Z,4.35
2023-03-24T17:54:00.830Z,4.09
2023-03-24T17:56:27.539Z,3.78
2023-03-24T17:58:55.069Z,3.86
2023-03-24T18:01:22.842Z,3.55
2023-03-24T18:03:52.587Z,3.39
2023-03-24T18:06:19.201Z,3.35
2023-03-24T18:08:45.924Z,3.03
2023-03-24T18:11:15.679Z,3.02
2023-03-24T18:13:45.085Z,3.02
2023-03-24T18:16:21.532Z,2.79
2023-03-24T18:18:49.670Z,2.80
2023-03-24T18:21:16.684Z,2.77
2023-03-24T18:23:43.388Z,2.61
2023-03-24T18:26:10.393Z,2.62
2023-03-24T18:28:38.939Z,2.62
2023-03-24T18:31:10.280Z,2.39
2023-03-24T18:33:36.964Z,2.39
2023-03-24T18:36:05.577Z,2.48
2023-03-24T18:38:32.316Z,2.24
2023-03-24T18:41:06.354Z,2.26
2023-03-24T18:43:45.071Z,2.35
2023-03-24T18:46:11.862Z,2.17
2023-03-24T18:48:42.668Z,2.25
2023-03-24T18:51:10.969Z,2.29
2023-03-24T18:53:38.694Z,2.06
2023-03-24T18:56:07.805Z,2.05
2023-03-24T18:58:36.590Z,2.10
2023-03-24T19:01:14.981Z,1.85
2023-03-24T19:03:44.224Z,1.85
2023-03-24T19:06:13.495Z,1.88
2023-03-24T19:08:42.973Z,1.67
2023-03-24T19:11:11.264Z,1.62
2023-03-24T19:13:38.597Z,1.81
2023-03-24T19:16:05.794Z,1.60
2023-03-24T19:18:32.490Z,1.51
2023-03-24T19:21:02.066Z,1.64
2023-03-24T19:23:31.277Z,1.57
2023-03-24T19:25:58.011Z,1.42
2023-03-24T19:28:29.182Z,1.53
2023-03-24T19:30:57.525Z,1.49
2023-03-24T19:33:24.176Z,1.35
2023-03-24T19:35:51.582Z,1.40
2023-03-24T19:38:25.003Z,1.46
2023-03-24T19:40:53.972Z,1.30
2023-03-24T19:43:21.957Z,1.31
2023-03-24T19:45:52.967Z,1.46
2023-03-24T19:48:19.791Z,1.30
2023-03-24T19:50:49.294Z,1.26
2023-03-24T19:53:16.648Z,1.40
2023-03-24T19:55:43.252Z,1.30
2023-03-24T19:58:09.893Z,1.20
2023-03-24T20:00:40.065Z,1.32
2023-03-24T20:03:07.127Z,1.29
2023-03-24T20:05:35.506Z,1.15
2023-03-24T20:08:02.613Z,1.21
2023-03-24T20:10:29.516Z,1.25
2023-03-24T20:12:56.799Z,1.13
2023-03-24T20:15:23.761Z,1.23
2023-03-24T20:17:50.762Z,1.21
2023-03-24T20:20:17.604Z,1.10
2023-03-24T20:22:50.036Z,1.26
2023-03-24T20:25:19.606Z,1.17
2023-03-24T20:27:47.583Z,1.12
2023-03-24T20:30:17.322Z,1.23
2023-03-24T20:32:44.356Z,1.14
2023-03-24T20:35:11.796Z,1.03
2023-03-24T20:37:38.570Z,1.13
2023-03-24T20:40:06.987Z,1.05
2023-03-24T20:42:33.661Z,0.94
2023-03-24T20:45:00.564Z,1.06
2023-03-24T20:47:28.545Z,1.09
2023-03-24T20:49:56.647Z,0.96
2023-03-24T20:52:24.403Z,1.11
2023-03-24T20:54:51.471Z,1.07
2023-03-24T20:57:19.282Z,0.96
2023-03-24T20:59:49.001Z,1.07
2023-03-24T21:02:17.086Z,1.10
2023-03-24T21:04:43.736Z,0.95
2023-03-24T21:07:10.681Z,0.93
2023-03-24T21:09:37.284Z,1.12
2023-03-24T21:12:06.542Z,0.98
2023-03-24T21:14:34.092Z,0.87
2023-03-24T21:17:01.649Z,1.00
2023-03-24T21:19:28.759Z,0.98
2023-03-24T21:21:56.173Z,0.86
2023-03-24T21:24:24.241Z,0.95
2023-03-24T21:26:51.490Z,0.93
2023-03-24T21:29:18.248Z,0.80
2023-03-24T21:31:44.926Z,0.83
2023-03-24T21:34:12.806Z,0.97
2023-03-24T21:36:40.481Z,0.79
2023-03-24T21:39:10.580Z,0.77
2023-03-24T21:41:39.004Z,0.90
2023-03-24T21:44:07.922Z,0.74
2023-03-24T21:46:35.759Z,0.65
2023-03-24T21:49:02.854Z,0.79
2023-03-24T21:51:37.880Z,0.73
2023-03-24T21:54:06.710Z,0.58
2023-03-24T21:56:36.580Z,0.69
2023-03-24T21:59:03.309Z,0.69
2023-03-24T22:01:31.144Z,0.53
2023-03-24T22:03:58.982Z,0.66
2023-03-24T22:06:29.285Z,0.65
2023-03-24T22:08:58.435Z,0.50
2023-03-24T22:11:25.962Z,0.65
2023-03-24T22:13:54.204Z,0.61
2023-03-24T22:16:21.021Z,0.50
2023-03-24T22:18:47.779Z,0.68
2023-03-24T22:21:14.815Z,0.56
2023-03-24T22:23:42.963Z,0.51
2023-03-24T22:26:15.829Z,0.68
2023-03-24T22:28:43.280Z,0.53
2023-03-24T22:31:13.866Z,0.53
2023-03-24T22:33:41.231Z,0.68
2023-03-24T22:36:10.143Z,0.49
2023-03-24T22:38:36.923Z,0.52
2023-03-24T22:41:08.229Z,0.61
2023-03-24T22:43:35.998Z,0.43
2023-03-24T22:46:03.266Z,0.45
2023-03-24T22:48:31.333Z,0.50
2023-03-24T22:50:58.499Z,0.33
2023-03-24T22:53:25.636Z,0.43
2023-03-24T22:55:52.746Z,0.42
2023-03-24T22:58:19.655Z,0.29
2023-03-24T23:00:48.711Z,0.40
2023-03-24T23:03:16.262Z,0.44
2023-03-24T23:05:46.462Z,0.28
2023-03-24T23:08:15.257Z,0.43
2023-03-24T23:10:44.753Z,0.36
2023-03-24T23:13:12.265Z,0.27
2023-03-24T23:15:47.623Z,0.45
2023-03-24T23:18:14.949Z,0.34
2023-03-24T23:20:44.065Z,0.26
2023-03-24T23:23:10.965Z,0.42
2023-03-24T23:25:43.354Z,0.29
2023-03-24T23:28:11.571Z,0.22
2023-03-24T23:30:38.909Z,0.40
2023-03-24T23:33:05.813Z,0.23
2023-03-24T23:35:33.388Z,0.22
2023-03-24T23:38:02.341Z,0.33
2023-03-24T23:40:29.039Z,0.20
2023-03-24T23:42:57.392Z,0.11
2023-03-24T23:45:23.989Z,0.25
2023-03-24T23:47:51.821Z,0.08
2023-03-24T23:50:20.534Z,0.09
2023-03-24T23:52:48.254Z,0.19
2023-03-24T23:55:18.813Z,0.05
2023-03-24T23:57:46.615Z,0.05
